Time;durP1;ratioP1;P1;durP2;ratioP2;P2;SDS_P1;SDS_P2;PMS_P1;PMS_P2;Temp;Humidity;BMP_temperature;BMP_pressure;BME280_temperature;BME280_humidity;BME280_pressure;Samples;Min_cycle;Max_cycle;Signal;HPM_P1;HPM_P2
2023/10/11 00:01:02;;;;;;;2.40;2.20;;;;;;;-144.30;53.06;85380.53;5092978;28;20187;-55
2023/10/11 00:03:35;;;;;;;4.67;2.30;;;;;;;-144.30;53.20;85388.47;5092730;28;20195;-55
2023/10/11 00:06:04;;;;;;;4.93;2.20;;;;;;;-144.30;53.58;85392.47;5093137;28;20574;-55
2023/10/11 00:08:39;;;;;;;3.07;2.00;;;;;;;-144.30;53.21;85416.31;5093062;28;20596;-56
2023/10/11 00:11:08;;;;;;;6.83;3.13;;;;;;;-144.30;53.36;85400.41;5092658;28;20222;-54
2023/10/11 00:13:35;;;;;;;4.30;2.37;;;;;;;-144.30;53.06;85400.41;5092738;28;20192;-55
2023/10/11 00:16:07;;;;;;;14.17;2.70;;;;;;;-144.30;53.09;85412.34;5092776;28;20256;-55
2023/10/11 00:18:35;;;;;;;3.93;2.43;;;;;;;-144.30;53.20;85293.06;5092189;28;20239;-55
2023/10/11 00:21:09;;;;;;;4.80;2.30;;;;;;;-144.30;53.17;85376.56;5092379;28;20199;-55
2023/10/11 00:23:36;;;;;;;3.17;2.63;;;;;;;-144.30;52.88;85376.56;5092552;28;20680;-55
2023/10/11 00:26:06;;;;;;;3.57;2.70;;;;;;;-144.30;52.71;85356.69;5092407;28;20202;-55
2023/10/11 00:28:37;;;;;;;4.57;2.93;;;;;;;-144.30;52.92;85400.41;5092274;28;20303;-56
2023/10/11 00:31:07;;;;;;;3.90;2.43;;;;;;;-144.30;53.27;85388.47;5092344;28;20195;-59
2023/10/11 00:33:35;;;;;;;3.57;2.53;;;;;;;-144.30;52.91;85376.56;5092354;28;20748;-59
2023/10/11 00:36:04;;;;;;;5.03;3.10;;;;;;;-144.30;53.26;85396.44;5092194;28;20199;-59
2023/10/11 00:38:32;;;;;;;3.40;2.60;;;;;;;-144.30;53.36;85408.34;5092118;28;20226;-59
2023/10/11 00:41:07;;;;;;;4.97;2.33;;;;;;;-144.30;53.31;85436.19;5092246;28;20659;-58
2023/10/11 00:43:37;;;;;;;6.30;2.27;;;;;;;-144.30;53.05;85378.53;5091967;28;20213;-60
2023/10/11 00:46:08;;;;;;;10.27;2.60;;;;;;;-144.30;53.21;85404.38;5092084;28;20228;-59
2023/10/11 00:48:36;;;;;;;5.53;2.50;;;;;;;-144.30;53.15;85412.34;5092039;28;20199;-60
2023/10/11 00:51:06;;;;;;;2.50;2.30;;;;;;;-144.30;53.25;85408.34;5091408;28;20199;-55
2023/10/11 00:53:34;;;;;;;4.90;2.80;;;;;;;-144.30;53.43;85394.44;5091893;28;20195;-59
2023/10/11 00:56:05;;;;;;;6.00;3.00;;;;;;;-144.30;53.07;85398.41;5091917;28;20249;-59
2023/10/11 00:58:32;;;;;;;4.07;2.33;;;;;;;-144.30;53.07;85756.28;5091783;28;20203;-58
2023/10/11 01:01:03;;;;;;;2.93;2.07;;;;;;;-144.30;53.00;85380.53;5091724;28;20195;-60
2023/10/11 01:03:33;;;;;;;4.47;2.27;;;;;;;-144.30;52.65;85398.41;5091919;28;20211;-59
2023/10/11 01:06:00;;;;;;;3.27;1.77;;;;;;;-144.30;52.76;85402.41;5091550;28;20230;-58
2023/10/11 01:08:27;;;;;;;2.13;1.93;;;;;;;-144.30;52.65;85406.38;5091507;28;20694;-55
2023/10/11 01:10:54;;;;;;;5.27;1.97;;;;;;;-144.30;52.78;85420.28;5091491;28;20506;-56
2023/10/11 01:13:21;;;;;;;2.00;1.80;;;;;;;-144.30;52.75;85422.28;5091441;28;20250;-55
2023/10/11 01:15:50;;;;;;;5.03;2.10;;;;;;;-144.30;52.89;85287.09;5091484;28;20199;-56
2023/10/11 01:18:19;;;;;;;6.00;1.90;;;;;;;-144.30;52.19;85400.41;5091269;28;20649;-59
2023/10/11 01:20:47;;;;;;;3.97;2.07;;;;;;;-144.30;51.95;85432.22;5091618;28;20298;-55
2023/10/11 01:23:15;;;;;;;1.83;1.30;;;;;;;-144.30;52.11;85412.34;5091429;28;20213;-56
2023/10/11 01:25:42;;;;;;;5.40;1.93;;;;;;;-144.30;52.00;85428.25;5091451;28;20227;-55
2023/10/11 01:28:09;;;;;;;1.67;1.50;;;;;;;-144.30;52.17;85420.28;5091215;28;20203;-62
2023/10/11 01:30:37;;;;;;;2.70;1.50;;;;;;;-144.30;51.72;85442.16;5091371;28;20690;-54
2023/10/11 01:33:05;;;;;;;3.13;2.33;;;;;;;-144.30;52.10;85396.44;5091052;28;20230;-54
2023/10/11 01:35:36;;;;;;;2.07;1.57;;;;;;;-144.30;52.18;85444.16;5091145;28;20196;-55
2023/10/11 01:38:06;;;;;;;3.53;1.53;;;;;;;-144.30;51.94;85384.50;5091295;28;20206;-55
2023/10/11 01:40:33;;;;;;;1.80;1.70;;;;;;;-144.30;51.47;85418.31;5091251;28;20202;-56
2023/10/11 01:43:02;;;;;;;3.53;1.93;;;;;;;-144.30;51.79;85422.28;5091187;28;20618;-59
2023/10/11 01:45:31;;;;;;;3.47;1.73;;;;;;;-144.30;51.92;85428.25;5091067;28;20221;-60
2023/10/11 01:47:58;;;;;;;7.43;2.23;;;;;;;-144.30;51.60;85414.31;5090892;28;20635;-59
2023/10/11 01:50:25;;;;;;;3.73;1.87;;;;;;;-144.30;51.95;85420.28;5090926;28;20191;-57
2023/10/11 01:52:52;;;;;;;1.93;1.57;;;;;;;-144.30;51.56;85414.31;5091304;28;20223;-60
2023/10/11 01:55:22;;;;;;;8.93;2.50;;;;;;;-144.30;51.41;85402.41;5091118;28;20282;-59
2023/10/11 01:57:50;;;;;;;5.90;2.97;;;;;;;-144.30;51.19;85442.16;5090984;28;20195;-59
2023/10/11 02:00:24;;;;;;;3.23;1.40;;;;;;;-144.30;51.10;85410.34;5090782;28;20245;-56
2023/10/11 02:02:55;;;;;;;4.63;1.80;;;;;;;-144.30;51.35;85396.44;5090208;28;20191;-55
2023/10/11 02:05:23;;;;;;;2.07;1.67;;;;;;;-144.30;51.57;85442.16;5090569;28;20293;-56
2023/10/11 02:07:50;;;;;;;1.67;1.57;;;;;;;-144.30;51.08;85398.41;5090730;28;20202;-59
2023/10/11 02:10:25;;;;;;;2.30;1.77;;;;;;;-144.30;51.34;85420.28;5091008;28;20203;-55
2023/10/11 02:12:56;;;;;;;2.73;1.57;;;;;;;-144.30;51.25;85378.53;5091007;28;20312;-54
2023/10/11 02:15:28;;;;;;;2.70;1.67;;;;;;;-144.30;51.34;85430.22;5090708;28;20218;-56
2023/10/11 02:17:55;;;;;;;4.97;1.60;;;;;;;-144.30;51.21;85454.09;5090446;28;20231;-56
2023/10/11 02:20:22;;;;;;;6.93;2.07;;;;;;;-144.30;50.66;85436.19;5090479;28;20199;-60
2023/10/11 02:22:55;;;;;;;1.50;1.40;;;;;;;-144.30;50.66;85404.38;5090543;28;20202;-60
2023/10/11 02:25:24;;;;;;;2.73;1.33;;;;;;;-144.30;50.40;85436.19;5090834;28;20225;-60
2023/10/11 02:27:54;;;;;;;1.47;1.37;;;;;;;-144.30;50.79;85382.53;5090505;28;20288;-59
2023/10/11 02:30:25;;;;;;;7.67;1.47;;;;;;;-144.30;50.88;85436.19;5090624;28;20716;-59
2023/10/11 02:32:58;;;;;;;3.60;1.50;;;;;;;-144.30;50.89;85426.25;5090366;28;20231;-59
2023/10/11 02:35:27;;;;;;;6.27;1.60;;;;;;;-144.30;51.30;85444.16;5090311;28;20559;-59
2023/10/11 02:37:56;;;;;;;4.00;1.73;;;;;;;-144.30;51.38;85448.13;5090358;28;20195;-55
2023/10/11 02:40:24;;;;;;;2.63;1.83;;;;;;;-144.30;51.01;85436.19;5090545;28;20671;-55
2023/10/11 02:42:51;;;;;;;2.00;1.90;;;;;;;-144.30;51.05;85404.38;5090331;28;20195;-55
2023/10/11 02:45:21;;;;;;;2.13;1.67;;;;;;;-144.30;50.92;85432.22;5090481;28;20600;-56
2023/10/11 02:47:48;;;;;;;6.40;2.20;;;;;;;-144.30;51.27;85442.16;5090176;28;20196;-56
2023/10/11 02:50:15;;;;;;;2.23;1.87;;;;;;;-144.30;51.05;85428.25;5090003;28;20697;-56
2023/10/11 02:52:43;;;;;;;4.43;1.90;;;;;;;-144.30;50.95;85418.31;5090178;28;20223;-55
2023/10/11 02:55:20;;;;;;;4.63;1.87;;;;;;;-144.30;50.44;85404.38;5089999;28;20195;-55
2023/10/11 02:57:47;;;;;;;7.50;2.00;;;;;;;-144.30;50.18;85471.97;5089999;28;20191;-60
2023/10/11 03:00:22;;;;;;;1.90;1.70;;;;;;;-144.30;50.63;85438.19;5089966;28;20200;-59
2023/10/11 03:02:55;;;;;;;2.53;1.87;;;;;;;-144.30;50.74;85408.34;5090058;28;20640;-59
2023/10/11 03:05:27;;;;;;;3.13;1.90;;;;;;;-144.30;50.80;85426.25;5090274;28;20245;-60
2023/10/11 03:07:55;;;;;;;3.57;1.50;;;;;;;-144.30;50.61;85676.75;5090038;28;20199;-55
2023/10/11 03:10:22;;;;;;;6.23;1.90;;;;;;;-144.30;50.46;85434.22;5089900;28;20248;-56
2023/10/11 03:12:51;;;;;;;4.23;1.80;;;;;;;-144.30;50.54;85422.28;5090911;28;20600;-56
2023/10/11 03:15:20;;;;;;;4.17;2.40;;;;;;;-144.30;50.45;85436.19;5093749;28;20202;-57
2023/10/11 03:17:52;;;;;;;4.23;2.33;;;;;;;-144.30;50.26;85452.09;5093654;28;20231;-55
2023/10/11 03:20:32;;;;;;;6.23;2.10;;;;;;;-144.30;50.32;85430.22;5094081;28;20244;-55
2023/10/11 03:23:01;;;;;;;3.43;2.17;;;;;;;-144.30;50.65;85475.94;5093785;28;20226;-60
2023/10/11 03:25:32;;;;;;;3.63;2.23;;;;;;;-144.30;50.35;85412.34;5093699;28;20197;-61
2023/10/11 03:28:00;;;;;;;2.43;2.07;;;;;;;-144.30;50.08;85444.16;5093483;28;20340;-56
2023/10/11 03:30:33;;;;;;;3.20;2.20;;;;;;;-144.30;50.11;85460.03;5093609;28;20199;-56
2023/10/11 03:33:02;;;;;;;9.20;2.40;;;;;;;-144.30;50.03;85430.22;5093378;28;20272;-60
2023/10/11 03:35:33;;;;;;;3.83;2.13;;;;;;;-144.30;49.73;85414.31;5093813;28;20699;-59
2023/10/11 03:38:01;;;;;;;5.53;2.07;;;;;;;-144.30;50.00;85471.97;5093485;28;20213;-56
2023/10/11 03:40:34;;;;;;;8.77;2.08;;;;;;;-144.30;50.03;85458.06;5091929;28;20439;-56
2023/10/11 03:43:03;;;;;;;8.60;2.47;;;;;;;-144.30;49.95;85442.16;5093446;28;20252;-55
2023/10/11 03:45:34;;;;;;;3.50;1.60;;;;;;;-144.30;49.81;85470.00;5093453;28;20196;-55
2023/10/11 03:48:09;;;;;;;4.10;1.60;;;;;;;-144.30;49.72;85456.06;5093267;28;20198;-57
2023/10/11 03:50:47;;;;;;;3.93;1.83;;;;;;;-144.30;49.69;85464.03;5092991;28;20682;-56
2023/10/11 03:53:15;;;;;;;5.37;1.80;;;;;;;-144.30;49.41;85470.00;5093395;28;20699;-55
2023/10/11 03:55:46;;;;;;;2.17;1.60;;;;;;;-144.30;50.00;85509.75;5093142;28;20234;-56
2023/10/11 03:58:28;;;;;;;2.30;1.70;;;;;;;-144.30;49.67;85479.94;5088678;28;20276;-57
2023/10/11 04:01:01;;;;;;;2.53;1.83;;;;;;;-144.30;50.12;85491.84;5092864;28;20203;-55
2023/10/11 04:03:28;;;;;;;6.40;1.93;;;;;;;-144.30;49.78;85503.78;5092803;28;20206;-56
2023/10/11 04:05:58;;;;;;;4.17;1.90;;;;;;;-144.30;50.58;85485.88;5092658;28;20202;-56
2023/10/11 04:08:26;;;;;;;6.80;2.10;;;;;;;-144.30;50.21;85505.78;5092833;28;20234;-59
2023/10/11 04:10:53;;;;;;;2.43;2.10;;;;;;;-144.30;49.97;85430.22;5092580;28;20311;-56
2023/10/11 04:13:25;;;;;;;2.90;1.90;;;;;;;-144.30;50.04;85501.78;5091223;28;20648;-56
2023/10/11 04:15:54;;;;;;;10.63;2.40;;;;;;;-144.30;49.78;85412.34;5091607;28;20199;-56
2023/10/11 04:18:37;;;;;;;1.80;1.70;;;;;;;-144.30;49.29;85487.88;5091197;28;20223;-57
2023/10/11 04:23:46;;;;;;;6.37;2.20;;;;;;;-144.30;49.64;85503.78;5089636;28;20197;-57
2023/10/11 04:29:06;;;;;;;5.17;2.10;;;;;;;-144.30;49.92;85471.97;5085268;28;20199;-56
2023/10/11 04:31:36;;;;;;;3.40;2.63;;;;;;;-144.30;49.86;85515.72;5092383;28;20199;-56
2023/10/11 04:34:11;;;;;;;5.40;2.53;;;;;;;-144.30;49.66;85507.75;5092289;28;20310;-56
2023/10/11 04:36:42;;;;;;;16.93;3.20;;;;;;;-144.30;49.97;85529.63;5092144;28;20663;-56
2023/10/11 04:39:16;;;;;;;2.80;2.60;;;;;;;-144.30;49.87;85505.78;5092390;28;20195;-56
2023/10/11 04:41:50;;;;;;;5.13;2.40;;;;;;;-144.30;49.47;85495.84;5092154;28;20298;-57
2023/10/11 04:44:18;;;;;;;3.20;2.40;;;;;;;-144.30;50.04;85515.72;5091444;28;20187;-57
2023/10/11 04:46:57;;;;;;;7.73;2.53;;;;;;;-144.30;49.75;85485.88;5091636;28;20192;-56
2023/10/11 04:49:25;;;;;;;2.20;2.10;;;;;;;-144.30;49.14;85491.84;5083093;28;20188;-56
2023/10/11 04:51:56;;;;;;;2.77;2.20;;;;;;;-144.30;49.61;85475.94;5091830;28;20596;-56
2023/10/11 04:54:35;;;;;;;3.80;1.90;;;;;;;-144.30;49.42;85495.84;5091697;28;20219;-55
2023/10/11 04:57:07;;;;;;;7.23;2.03;;;;;;;-144.30;49.60;85503.78;5086084;28;20252;-56
2023/10/11 04:59:36;;;;;;;3.33;2.13;;;;;;;-144.30;49.57;85336.78;5091760;28;20252;-56
2023/10/11 05:02:11;;;;;;;10.13;2.20;;;;;;;-144.30;49.29;85497.81;5091905;28;20229;-56
2023/10/11 05:04:44;;;;;;;11.67;2.10;;;;;;;-144.30;49.20;85491.84;5091745;28;20666;-56
2023/10/11 05:07:14;;;;;;;8.80;2.50;;;;;;;-144.30;49.26;85481.91;5091436;28;20194;-55
2023/10/11 05:09:41;;;;;;;4.87;2.80;;;;;;;-144.30;49.37;85499.81;5086178;28;20835;-56
2023/10/11 05:12:09;;;;;;;3.37;2.30;;;;;;;-144.30;49.70;85396.44;5091649;28;20226;-62
2023/10/11 05:14:39;;;;;;;6.33;1.93;;;;;;;-144.30;49.05;85479.94;5092350;28;20276;-61
2023/10/11 05:19:57;;;;;;;4.53;2.30;;;;;;;-144.30;49.30;85456.06;5088441;28;20671;-61
2023/10/11 05:22:45;;;;;;;6.77;2.87;;;;;;;-144.30;49.22;85440.16;5091945;28;20191;-62
2023/10/11 05:25:37;;;;;;;5.03;2.77;;;;;;;-144.30;49.07;85366.63;5092183;28;20191;-62
2023/10/11 05:31:01;;;;;;;14.37;3.50;;;;;;;-144.30;48.76;85446.13;5084169;28;20226;-61
2023/10/11 05:33:41;;;;;;;6.37;2.60;;;;;;;-144.30;48.47;85454.09;5092090;28;20219;-61
2023/10/11 05:36:36;;;;;;;4.67;2.03;;;;;;;-144.30;48.32;85450.09;5091241;28;20210;-62
2023/10/11 05:53:06;;;;;;;3.80;2.20;;;;;;;-144.30;47.55;85388.47;5046830;28;20222;-62
2023/10/11 05:55:37;;;;;;;10.57;2.13;;;;;;;-144.30;47.47;85368.59;5071882;28;20197;-61
2023/10/11 05:58:04;;;;;;;9.83;2.90;;;;;;;-144.30;47.26;85346.72;5091212;28;20667;-57
2023/10/11 06:00:35;;;;;;;16.87;8.30;;;;;;;-144.30;46.68;85297.03;5090528;28;20679;-56
2023/10/11 06:03:05;;;;;;;4.50;2.50;;;;;;;-144.30;45.84;85297.03;5090874;28;20192;-56
2023/10/11 06:05:39;;;;;;;7.93;2.37;;;;;;;-144.30;45.08;85229.44;5090439;28;20191;-56
2023/10/11 06:08:13;;;;;;;5.30;2.40;;;;;;;-144.30;43.91;85213.53;5090974;28;20195;-61
2023/10/11 06:10:42;;;;;;;7.20;2.13;;;;;;;-144.30;43.19;85193.66;5090987;28;20195;-62
2023/10/11 06:13:13;;;;;;;5.17;2.27;;;;;;;-144.30;42.97;85189.69;5090949;28;20222;-55
2023/10/11 06:15:59;;;;;;;5.63;1.97;;;;;;;-144.30;42.47;85215.53;5090563;28;20281;-55
2023/10/11 06:18:55;;;;;;;5.97;1.70;;;;;;;-144.30;42.85;85086.31;5089944;28;20230;-57
2023/10/11 06:21:32;;;;;;;4.93;3.20;;;;;;;-144.30;39.37;84861.72;5090243;28;20199;-61
2023/10/11 06:23:59;;;;;;;6.78;2.20;;;;;;;-144.30;35.52;84643.09;5090916;28;20580;-62
2023/10/11 06:29:15;;;;;;;4.65;2.20;;;;;;;-144.30;32.84;84295.28;5090296;28;20195;-62
2023/10/11 06:31:43;;;;;;;5.93;2.88;;;;;;;-144.30;31.13;84176.06;5090691;28;20206;-62
2023/10/11 06:34:17;;;;;;;3.95;2.67;;;;;;;-144.30;30.16;84031.00;5090533;28;20327;-61
2023/10/11 06:36:48;;;;;;;3.67;3.25;;;;;;;-144.30;30.06;84021.06;5090220;28;20191;-61
2023/10/11 06:39:33;;;;;;;9.88;6.22;;;;;;;-144.30;30.02;83929.66;5090237;28;20235;-62
2023/10/11 06:42:06;;;;;;;8.38;3.13;;;;;;;-144.30;29.55;84382.72;5090296;28;20202;-62
2023/10/11 06:44:34;;;;;;;17.05;12.55;;;;;;;-144.30;29.37;83959.44;5090297;28;20195;-63
2023/10/11 06:47:03;;;;;;;3.22;2.45;;;;;;;-144.30;29.04;83925.66;5090383;28;20203;-62
2023/10/11 06:49:40;;;;;;;9.85;2.97;;;;;;;-144.30;29.71;84056.81;5094066;28;20195;-61
2023/10/11 06:52:07;;;;;;;4.68;3.95;;;;;;;-144.30;30.55;84209.84;5094078;28;20195;-56
2023/10/11 06:54:35;;;;;;;17.05;5.82;;;;;;;-144.30;31.83;84370.81;5093985;28;20226;-56
2023/10/11 06:57:04;;;;;;;8.23;2.53;;;;;;;-144.30;32.66;84418.50;5094013;28;20290;-57
2023/10/11 06:59:32;;;;;;;2.78;2.42;;;;;;;-144.30;33.99;84595.38;5093870;28;20282;-58
2023/10/11 07:01:59;;;;;;;4.00;2.35;;;;;;;-144.30;35.44;84684.81;5093971;28;20217;-57
2023/10/11 07:04:36;;;;;;;5.80;3.28;;;;;;;-144.30;36.65;84812.03;5093776;28;20637;-56
2023/10/11 07:07:07;;;;;;;8.40;2.50;;;;;;;-144.30;37.71;84869.66;5093834;28;20210;-57
2023/10/11 07:09:39;;;;;;;4.25;2.35;;;;;;;-144.30;38.22;84931.28;5093691;28;20243;-56
2023/10/11 07:12:28;;;;;;;7.22;2.42;;;;;;;-144.30;39.25;85002.84;5093644;28;20195;-57
2023/10/11 07:14:58;;;;;;;5.43;2.72;;;;;;;-144.30;39.52;84977.00;5093716;28;20223;-56
2023/10/11 07:17:28;;;;;;;5.75;3.15;;;;;;;-144.30;39.60;84992.91;5093368;28;20256;-57
2023/10/11 07:19:57;;;;;;;4.40;2.10;;;;;;;-144.30;40.06;85038.63;5093790;28;20270;-56
2023/10/11 07:22:26;;;;;;;6.33;3.20;;;;;;;-144.30;40.70;85050.53;5093497;28;20195;-56
2023/10/11 07:24:57;;;;;;;3.60;3.30;;;;;;;-144.30;40.55;85042.59;5094049;28;20201;-57
2023/10/11 07:27:37;;;;;;;6.87;4.33;;;;;;;-144.30;40.45;85046.56;5093530;28;20196;-56
2023/10/11 07:30:16;;;;;;;5.15;2.90;;;;;;;-144.30;40.60;85044.59;5093912;28;20276;-62
2023/10/11 07:32:43;;;;;;;4.70;3.00;;;;;;;-144.30;40.88;85054.53;5093691;28;20253;-61
2023/10/11 07:35:17;;;;;;;10.30;3.03;;;;;;;-144.30;40.93;84986.94;5093961;28;20218;-62
2023/10/11 07:37:45;;;;;;;8.18;2.97;;;;;;;-144.30;40.60;84980.97;5093540;28;20199;-62
2023/10/11 07:40:14;;;;;;;10.05;5.38;;;;;;;-144.30;40.32;85000.84;5093792;28;20215;-62
2023/10/11 07:42:45;;;;;;;3.33;2.63;;;;;;;-144.30;40.56;85000.84;5093464;28;20286;-61
2023/10/11 07:45:13;;;;;;;9.20;2.53;;;;;;;-144.30;41.34;85024.72;5093353;28;20198;-63
2023/10/11 07:47:45;;;;;;;6.20;3.28;;;;;;;-144.30;41.45;85022.72;5093663;28;20612;-61
2023/10/11 07:50:14;;;;;;;8.52;4.32;;;;;;;-144.30;41.52;85010.78;5093753;28;20572;-62
2023/10/11 07:52:42;;;;;;;4.03;2.50;;;;;;;-144.30;40.84;85036.63;5093473;28;20710;-62
2023/10/11 07:55:12;;;;;;;7.05;3.00;;;;;;;-144.30;40.55;84895.50;5093216;28;20219;-61
2023/10/11 07:57:44;;;;;;;9.75;2.88;;;;;;;-144.30;40.23;84947.19;5093058;28;20628;-56
2023/10/11 08:00:18;;;;;;;4.97;2.88;;;;;;;-144.30;39.85;84925.31;5091735;28;20191;-62
2023/10/11 08:02:56;;;;;;;5.05;2.72;;;;;;;-144.30;40.04;84905.44;5093114;28;20600;-62
2023/10/11 08:05:25;;;;;;;4.65;2.35;;;;;;;-144.30;40.09;84812.03;5093075;28;20284;-56
2023/10/11 08:07:53;;;;;;;9.25;6.50;;;;;;;-144.30;39.32;84804.06;5093159;28;20191;-62
2023/10/11 08:10:33;;;;;;;4.72;2.80;;;;;;;-144.30;38.89;84810.03;5092917;28;20249;-61
2023/10/11 08:13:00;;;;;;;8.00;5.05;;;;;;;-144.30;38.59;84784.19;5092845;28;20242;-62
2023/10/11 08:15:29;;;;;;;12.13;3.20;;;;;;;-144.30;38.57;84782.22;5092620;28;20219;-62
2023/10/11 08:17:56;;;;;;;4.60;3.22;;;;;;;-144.30;38.54;84819.97;5092787;28;20624;-62
2023/10/11 08:20:28;;;;;;;2.72;2.53;;;;;;;-144.30;38.78;84810.03;5092953;28;20222;-62
2023/10/11 08:22:57;;;;;;;8.80;3.45;;;;;;;-144.30;38.60;84676.88;5092658;28;20199;-62
2023/10/11 08:25:27;;;;;;;4.03;2.17;;;;;;;-144.30;38.18;84810.03;5092447;28;20631;-56
2023/10/11 08:28:10;;;;;;;6.72;3.45;;;;;;;-144.30;38.63;84726.56;5092392;28;20202;-57
2023/10/11 08:30:40;;;;;;;10.35;2.95;;;;;;;-144.30;38.66;84770.28;5092362;28;20203;-56
2023/10/11 08:33:08;;;;;;;4.95;2.40;;;;;;;-144.30;38.79;84784.19;5092424;28;20710;-62
2023/10/11 08:35:35;;;;;;;7.13;2.72;;;;;;;-144.30;38.49;84770.28;5092425;28;20733;-62
2023/10/11 08:38:04;;;;;;;7.53;2.70;;;;;;;-144.30;38.64;84774.25;5092549;28;20282;-56
2023/10/11 08:40:35;;;;;;;4.53;1.90;;;;;;;-144.30;38.97;84818.00;5091939;28;20268;-58
2023/10/11 08:43:03;;;;;;;6.97;2.92;;;;;;;-144.30;39.30;84808.06;5092281;28;20391;-61
2023/10/11 08:45:33;;;;;;;3.45;2.35;;;;;;;-144.30;39.59;84831.91;5092306;28;20199;-61
2023/10/11 08:48:03;;;;;;;5.45;2.17;;;;;;;-144.30;40.20;84847.81;5092724;28;20203;-61
2023/10/11 08:50:34;;;;;;;4.60;2.40;;;;;;;-144.30;40.96;84861.72;5092132;28;20195;-61
2023/10/11 08:53:02;;;;;;;6.95;3.00;;;;;;;-144.30;41.47;84899.47;5091956;28;20191;-62
2023/10/11 08:55:29;;;;;;;5.10;2.05;;;;;;;-144.30;41.30;84947.19;5091973;28;20215;-55
2023/10/11 08:57:56;;;;;;;10.05;3.30;;;;;;;-144.30;41.37;84889.53;5091700;28;20191;-56
2023/10/11 09:00:31;;;;;;;5.18;3.10;;;;;;;-144.30;41.58;84927.31;5091638;28;20199;-56
2023/10/11 09:02:58;;;;;;;10.23;3.00;;;;;;;-144.30;41.90;84903.47;5091686;28;20194;-55
2023/10/11 09:05:42;;;;;;;4.05;3.05;;;;;;;-144.30;42.29;84931.28;5091722;28;20199;-57
2023/10/11 09:08:21;;;;;;;7.22;4.95;;;;;;;-144.30;41.35;84837.88;5091739;28;20196;-56
2023/10/11 09:10:49;;;;;;;10.98;6.18;;;;;;;-144.30;41.33;84877.63;5091587;28;20194;-57
2023/10/11 09:13:27;;;;;;;7.32;2.55;;;;;;;-144.30;41.05;84867.69;5091523;28;20685;-56
2023/10/11 09:15:55;;;;;;;5.10;3.13;;;;;;;-144.30;41.25;84879.59;5091803;28;20210;-62
2023/10/11 09:18:25;;;;;;;7.40;3.20;;;;;;;-144.30;41.39;84873.66;5091873;28;20231;-61
2023/10/11 09:21:08;;;;;;;8.55;3.80;;;;;;;-144.30;41.64;84871.66;5091965;28;20199;-62
2023/10/11 09:23:36;;;;;;;9.90;4.03;;;;;;;-144.30;41.76;84857.75;5091385;28;20203;-56
2023/10/11 09:26:05;;;;;;;12.02;4.38;;;;;;;-144.30;41.82;84891.53;5091339;28;20187;-57
2023/10/11 09:28:33;;;;;;;9.65;5.22;;;;;;;-144.30;41.54;84847.81;5091045;28;20226;-57
2023/10/11 09:31:11;;;;;;;14.48;6.28;;;;;;;-144.30;41.39;84821.97;5091192;28;20192;-59
2023/10/11 09:33:40;;;;;;;14.35;9.13;;;;;;;-144.30;41.49;84748.44;5090905;28;20260;-56
2023/10/11 09:36:12;;;;;;;16.73;8.18;;;;;;;-144.30;42.17;84849.78;5091263;28;20200;-63
2023/10/11 09:38:41;;;;;;;9.60;4.95;;;;;;;-144.30;42.68;84829.91;5091773;28;20655;-61
2023/10/11 09:41:09;;;;;;;11.93;8.50;;;;;;;-144.30;42.89;84899.47;5091266;28;20187;-62
2023/10/11 09:43:45;;;;;;;6.78;5.57;;;;;;;-144.30;43.76;84951.16;5091399;28;20655;-62
2023/10/11 09:46:13;;;;;;;6.85;4.20;;;;;;;-144.30;44.13;84963.09;5091305;28;20195;-63
2023/10/11 09:48:40;;;;;;;7.65;5.25;;;;;;;-144.30;44.57;84955.13;5091201;28;20200;-62
2023/10/11 09:51:13;;;;;;;6.47;5.40;;;;;;;-144.30;44.98;84982.97;5091623;28;20202;-63
2023/10/11 09:53:42;;;;;;;24.27;15.75;;;;;;;-144.30;45.15;84998.88;5091076;28;20195;-61
2023/10/11 09:56:19;;;;;;;36.70;23.42;;;;;;;-144.30;46.03;85020.72;5091144;28;20239;-61
2023/10/11 09:58:54;;;;;;;16.98;13.43;;;;;;;-144.30;45.95;85022.72;5091282;28;20230;-62
2023/10/11 10:01:32;;;;;;;17.95;10.45;;;;;;;-144.30;45.95;85018.75;5091422;28;20248;-62
2023/10/11 10:04:06;;;;;;;13.73;8.77;;;;;;;-144.30;45.86;84982.97;5091136;28;20209;-61
2023/10/11 10:06:34;;;;;;;18.52;8.77;;;;;;;-144.30;45.97;84998.88;5090888;28;20234;-62
2023/10/11 10:09:23;;;;;;;13.93;9.13;;;;;;;-144.30;46.17;84965.06;5090804;28;20199;-62
2023/10/11 10:12:20;;;;;;;24.98;11.15;;;;;;;-144.30;46.17;85012.78;5091209;28;20248;-62
2023/10/11 10:14:50;;;;;;;17.20;7.30;;;;;;;-144.30;45.81;84998.88;5091065;28;20663;-61
2023/10/11 10:17:18;;;;;;;14.35;5.95;;;;;;;-144.30;45.84;84975.00;5090872;28;20225;-61
2023/10/11 10:19:48;;;;;;;10.85;7.35;;;;;;;-144.30;46.15;84986.94;5090460;28;20235;-55
2023/10/11 10:22:17;;;;;;;8.00;6.95;;;;;;;-144.30;46.27;84963.09;5089711;28;20206;-57
2023/10/11 10:24:45;;;;;;;11.65;7.85;;;;;;;-144.30;46.11;84988.94;5090065;28;20191;-57
2023/10/11 10:27:38;;;;;;;6.85;4.70;;;;;;;-144.30;46.26;84998.88;5090883;28;20659;-61
2023/10/11 10:30:07;;;;;;;6.60;5.13;;;;;;;-144.30;46.22;84917.38;5090784;28;20191;-61
2023/10/11 10:32:34;;;;;;;13.23;7.32;;;;;;;-144.30;46.32;84933.28;5090431;28;20195;-62
2023/10/11 10:35:26;;;;;;;15.38;10.80;;;;;;;-144.30;46.93;84963.09;5090233;28;20223;-56
2023/10/11 10:37:57;;;;;;;21.90;13.07;;;;;;;-144.30;46.92;84967.06;5090624;28;20195;-61
2023/10/11 10:40:28;;;;;;;21.35;15.70;;;;;;;-144.30;46.35;84967.06;5090723;28;20641;-62
2023/10/11 10:43:20;;;;;;;20.27;17.55;;;;;;;-144.30;46.14;84901.47;5090599;28;20195;-63
2023/10/11 10:45:49;;;;;;;29.40;17.67;;;;;;;-144.30;45.77;84919.34;5090298;28;20207;-61
2023/10/11 10:48:18;;;;;;;17.38;12.98;;;;;;;-144.30;46.05;84943.22;5090678;28;20199;-61
2023/10/11 10:50:48;;;;;;;11.57;8.95;;;;;;;-144.30;46.00;84931.28;5090519;28;20206;-62
2023/10/11 10:53:17;;;;;;;21.70;10.80;;;;;;;-144.30;46.13;84929.28;5090443;28;20203;-61
2023/10/11 10:55:44;;;;;;;10.43;6.22;;;;;;;-144.30;46.17;84939.25;5090415;28;20598;-62
2023/10/11 10:58:17;;;;;;;28.80;12.75;;;;;;;-144.30;46.31;84949.19;5090278;28;20203;-62
2023/10/11 11:00:43;;;;;;;35.33;13.35;;;;;;;-144.30;46.09;84933.28;5090229;28;20196;-61
2023/10/11 11:03:20;;;;;;;19.70;11.05;;;;;;;-144.30;45.58;84915.38;5090200;28;20214;-62
2023/10/11 11:05:55;;;;;;;17.25;8.95;;;;;;;-144.30;45.66;84929.28;5090371;28;20574;-61
2023/10/11 11:08:27;;;;;;;24.98;11.00;;;;;;;-144.30;44.88;84859.72;5090270;28;20276;-61
2023/10/11 11:11:18;;;;;;;9.77;5.28;;;;;;;-144.30;44.81;84909.41;5090075;28;20283;-61
2023/10/11 11:13:48;;;;;;;8.40;6.00;;;;;;;-144.30;44.67;84929.28;5090101;28;20206;-62
2023/10/11 11:16:18;;;;;;;14.23;9.48;;;;;;;-144.30;44.78;84923.34;5089902;28;20288;-62
2023/10/11 11:18:45;;;;;;;8.48;7.63;;;;;;;-144.30;44.88;84975.00;5090053;28;20686;-61
2023/10/11 11:21:20;;;;;;;19.67;10.30;;;;;;;-144.30;44.99;84959.13;5090202;28;20195;-57
2023/10/11 11:23:50;;;;;;;15.85;11.55;;;;;;;-144.30;44.89;84901.47;5089853;28;20592;-57
2023/10/11 11:26:18;;;;;;;37.80;19.17;;;;;;;-144.30;45.00;84863.72;5089644;28;20255;-56
2023/10/11 11:28:45;;;;;;;32.45;18.73;;;;;;;-144.30;44.85;84887.56;5089724;28;20199;-56
2023/10/11 11:31:30;;;;;;;15.82;11.95;;;;;;;-144.30;44.76;84943.22;5089755;28;20620;-56
2023/10/11 11:34:15;;;;;;;20.10;11.23;;;;;;;-144.30;44.77;84921.34;5090894;28;20201;-61
2023/10/11 11:36:41;;;;;;;29.00;11.82;;;;;;;-144.30;44.52;84903.47;5093792;28;20207;-62
2023/10/11 11:39:26;;;;;;;25.80;14.93;;;;;;;-144.30;44.38;84877.63;5094156;28;20203;-62
2023/10/11 11:41:53;;;;;;;28.17;17.13;;;;;;;-144.30;44.58;84921.34;5093801;28;20666;-61
2023/10/11 11:44:21;;;;;;;22.92;14.45;;;;;;;-144.30;44.31;84814.00;5093707;28;20582;-61
2023/10/11 11:46:49;;;;;;;26.75;18.10;;;;;;;-144.30;44.28;84917.38;5093757;28;20575;-62
2023/10/11 11:49:17;;;;;;;34.30;20.63;;;;;;;-144.30;44.55;84917.38;5093279;28;20206;-62
2023/10/11 11:51:43;;;;;;;24.23;16.50;;;;;;;-144.30;44.38;84885.56;5093633;28;20192;-61
2023/10/11 11:54:17;;;;;;;18.75;14.63;;;;;;;-144.30;44.03;84883.59;5093611;28;20637;-56
2023/10/11 11:56:45;;;;;;;20.23;15.35;;;;;;;-144.30;44.11;84889.53;5092899;28;20206;-56
2023/10/11 11:59:18;;;;;;;14.82;11.93;;;;;;;-144.30;44.17;84915.38;5092906;28;20203;-56
2023/10/11 12:01:49;;;;;;;16.30;10.48;;;;;;;-144.30;44.27;84925.31;5093057;28;20203;-56